메인 페이지
METAR-TAF:

METAR-TAF

공항 :

라오아그, 필리핀

위도: 18-11N, 경도: 120-32E, 고도: 4m

현재 날씨관측

예보는 52분 전, 14:00시(UTC)에 발표되었습니다.
여러 방향의 바람 2kt
온도 28°C
습도 94%
기압 1008 hPa
시정 10km 이상
고도 1800ft 상공 구름 조금
고도 28000ft 상공 구름 많음

METAR: RPLI 251400Z VRB02KT 9999 FEW018 BKN280 28/27 Q1008 NOSIG RMK A2977

시각: 22:52 (14:52 UTC)

예보

예보는 3 시간 52분 전, 11:00시(UTC)에 발표되었습니다.
예보 대상 시간: 25일 12시부터 26일 12시까지 (UTC)
동남동6kt
시정 10km 이상
고도 1800ft 상공 구름 조금
고도 9000ft 상공 구름 많음
일시적
25일 12시부터 25일 16시까지 (UTC)
여러 방향의 바람 6kt
고도 1700ft 상공 구름 조금, 적란운.
고도 8000ft 상공 흐림
전환 중
26일 01시부터 26일 03시까지 (UTC)
서북서7kt
일시적
26일 06시부터 26일 12시까지 (UTC)
시정: 5000m
고도 1700ft 상공 구름 보통, 적란운.
고도 9000ft 상공 구름 많음
뇌우, 비,

TAF: RPLI 251100Z 2512/2612 12006KT 9999 FEW018 BKN090 TEMPO 2512/2516 VRB06KT FEW017CB OVC080 BECMG 2601/2603 29007KT TEMPO 2606/2612 5000 TSRA SCT017CB BKN090

4,000개 이상의 공항 관측 자료 및 예보 (METAR 및 TAF 보고).

지도상에서 검색 가능한 기상관측소가 노란 점과 빨간 점으로 표시되어 있습니다.

기상관측소 명을 보려면 표시 위로 마우스를 이동하세요.

날씨 관측과 예보를 보려면 클릭하세요.

지도 변경 : 확대하려면 엑스 표시가 있는 녹색 버튼, 축소하려면 빼기 표시가 있는 녹색 버튼, 다음 페이지의 지도를 보려면 녹색 화살표를 클릭하세요.


METAR-TAF: